createdAt,value
2018-07-19T19:19:55.683Z,41.50
2018-07-19T19:22:24.058Z,42.80
2018-07-19T19:24:52.402Z,43.30
2018-07-19T19:27:20.864Z,43.20
2018-07-19T19:29:49.182Z,43.30
2018-07-19T19:32:17.578Z,43.50
2018-07-19T19:34:45.955Z,43.60
2018-07-19T19:37:14.331Z,43.80
2018-07-19T19:39:44.815Z,44.00
2018-07-19T19:42:13.316Z,44.20
2018-07-19T19:44:41.759Z,44.50
2018-07-19T19:47:10.132Z,44.30
2018-07-19T19:49:39.131Z,44.50
2018-07-19T19:52:09.276Z,44.60
2018-07-19T19:54:37.936Z,44.60
2018-07-19T19:57:07.000Z,44.70
2018-07-19T19:59:35.343Z,44.80
2018-07-19T20:02:04.330Z,44.80
2018-07-19T20:04:32.768Z,45.00
2018-07-19T20:07:01.143Z,45.40
2018-07-19T20:09:29.512Z,45.50
2018-07-19T20:11:58.264Z,45.40
2018-07-19T20:14:26.762Z,45.50
2018-07-19T20:16:55.462Z,45.50
2018-07-19T20:19:24.178Z,45.40
2018-07-19T20:21:52.760Z,45.80
2018-07-19T20:24:21.136Z,46.00
2018-07-19T20:26:49.960Z,45.70
2018-07-19T20:29:18.448Z,46.30
2018-07-19T20:31:46.854Z,46.60
2018-07-19T20:34:15.253Z,47.50
2018-07-19T20:39:12.158Z,47.60
2018-07-19T20:41:40.526Z,47.40
2018-07-19T20:44:08.870Z,47.60
2018-07-19T20:46:37.188Z,47.60
2018-07-19T20:49:05.648Z,47.70
2018-07-19T20:51:34.022Z,47.90
2018-07-19T20:54:03.196Z,47.80
2018-07-19T20:56:31.529Z,47.90
2018-07-19T20:58:59.893Z,47.90
2018-07-19T21:01:28.254Z,48.10
2018-07-19T21:03:56.602Z,48.30
2018-07-19T21:06:24.999Z,48.50
2018-07-19T21:08:53.369Z,48.90
2018-07-19T21:11:21.738Z,48.70
2018-07-19T21:13:50.109Z,49.00
2018-07-19T21:16:18.471Z,49.20
2018-07-19T21:18:46.789Z,49.00
2018-07-19T21:21:15.137Z,49.40
2018-07-19T21:23:43.472Z,50.10
2018-07-19T21:26:11.832Z,50.30
2018-07-19T21:31:08.295Z,50.90
2018-07-19T21:33:36.611Z,50.90
2018-07-19T21:36:05.239Z,50.90
2018-07-19T21:38:33.605Z,50.80
2018-07-19T21:41:02.423Z,51.00
2018-07-19T21:43:30.786Z,51.00
2018-07-19T21:45:59.098Z,51.20
2018-07-19T21:48:27.440Z,51.60
2018-07-19T21:50:55.752Z,51.70
2018-07-19T21:55:58.747Z,52.10
2018-07-19T21:58:27.075Z,51.80
2018-07-19T22:01:00.938Z,51.90
2018-07-19T22:03:29.290Z,52.10
2018-07-19T22:05:57.714Z,52.30
2018-07-19T22:08:26.028Z,52.90
2018-07-19T22:10:54.348Z,53.20
2018-07-19T22:13:22.702Z,53.50
2018-07-19T22:15:51.064Z,53.60
2018-07-19T22:18:19.399Z,53.30
2018-07-19T22:20:47.934Z,53.40
2018-07-19T22:23:16.282Z,53.90
2018-07-19T22:25:44.650Z,54.20
2018-07-19T22:28:13.005Z,54.10
2018-07-19T22:30:41.332Z,54.30
2018-07-19T22:33:09.677Z,54.60
2018-07-19T22:35:38.087Z,54.80
2018-07-19T22:38:06.404Z,55.30
2018-07-19T22:40:34.755Z,54.70
2018-07-19T22:43:03.202Z,55.00
2018-07-19T22:45:31.711Z,54.90
2018-07-19T22:48:00.003Z,55.00
2018-07-19T22:50:28.356Z,55.40
2018-07-19T22:52:56.638Z,55.40
2018-07-19T22:55:24.980Z,55.40
2018-07-19T22:57:53.294Z,55.20
2018-07-19T23:00:21.639Z,55.50
2018-07-19T23:02:50.039Z,55.80
2018-07-19T23:05:18.418Z,56.40
2018-07-19T23:07:46.741Z,56.50
2018-07-19T23:10:15.084Z,56.20
2018-07-19T23:12:43.403Z,56.20
2018-07-19T23:15:12.115Z,56.90
2018-07-19T23:17:40.439Z,57.00
2018-07-19T23:20:08.860Z,56.80
2018-07-19T23:22:37.177Z,56.70
2018-07-19T23:25:05.519Z,56.70
2018-07-19T23:27:33.839Z,56.80
2018-07-19T23:30:02.155Z,56.70
2018-07-19T23:32:30.462Z,56.10
2018-07-19T23:34:58.913Z,56.90
2018-07-19T23:37:31.693Z,57.00
2018-07-19T23:40:09.903Z,57.00
2018-07-19T23:42:44.178Z,56.90
2018-07-19T23:45:49.604Z,57.10
2018-07-19T23:48:17.959Z,57.20
2018-07-19T23:50:46.260Z,57.50
2018-07-19T23:53:14.577Z,58.00
2018-07-19T23:55:42.916Z,58.40
2018-07-19T23:58:11.222Z,58.40
